createdAt,value
2019-02-04T00:01:33.562Z,36.45
2019-02-04T00:04:03.661Z,36.77
2019-02-04T00:06:33.781Z,35.70
2019-02-04T00:09:05.512Z,39.73
2019-02-04T00:11:36.707Z,36.45
2019-02-04T00:14:07.013Z,40.60
2019-02-04T00:16:40.882Z,33.98
2019-02-04T00:19:08.923Z,36.77
2019-02-04T00:21:39.046Z,34.40
2019-02-04T00:24:09.139Z,41.73
2019-02-04T00:26:39.255Z,38.48
2019-02-04T00:29:09.365Z,43.20
2019-02-04T00:31:39.488Z,39.45
2019-02-04T00:34:09.583Z,40.38
2019-02-04T00:36:39.705Z,42.67
2019-02-04T00:39:09.804Z,39.10
2019-02-04T00:41:40.194Z,41.02
2019-02-04T00:44:10.293Z,40.43
2019-02-04T00:46:51.798Z,45.63
2019-02-04T00:49:12.213Z,41.63
2019-02-04T00:51:42.330Z,38.92
2019-02-04T00:54:12.428Z,39.63
2019-02-04T00:56:42.556Z,43.20
2019-02-04T00:59:12.749Z,43.52
2019-02-04T01:01:42.865Z,48.28
2019-02-04T01:04:12.962Z,50.88
2019-02-04T01:06:43.092Z,48.58
2019-02-04T01:09:21.033Z,42.85
2019-02-04T01:11:51.149Z,43.48
2019-02-04T01:14:21.252Z,47.88
2019-02-04T01:16:51.353Z,45.15
2019-02-04T01:19:21.449Z,47.78
2019-02-04T01:21:51.608Z,45.55
2019-02-04T01:24:21.699Z,47.65
2019-02-04T01:26:51.830Z,49.73
2019-02-04T01:29:21.926Z,47.67
2019-02-04T01:31:52.046Z,56.18
2019-02-04T01:34:22.433Z,47.83
2019-02-04T01:36:52.529Z,49.13
2019-02-04T01:39:22.655Z,50.05
2019-02-04T01:41:52.745Z,48.00
2019-02-04T01:44:22.871Z,51.65
2019-02-04T01:46:53.346Z,50.00
2019-02-04T01:49:23.457Z,48.45
2019-02-04T01:51:53.549Z,53.17
2019-02-04T01:54:23.671Z,56.92
2019-02-04T01:56:53.771Z,50.48
2019-02-04T01:59:23.898Z,56.73
2019-02-04T02:01:54.023Z,51.92
2019-02-04T02:04:24.157Z,50.63
2019-02-04T02:06:55.213Z,46.18
2019-02-04T02:09:26.312Z,52.95
2019-02-04T02:11:56.406Z,56.90
2019-02-04T02:14:26.812Z,59.18
2019-02-04T02:16:56.904Z,66.28
2019-02-04T02:19:27.192Z,62.40
2019-02-04T02:21:58.029Z,58.75
2019-02-04T02:24:28.250Z,65.85
2019-02-04T02:26:58.734Z,60.03
2019-02-04T02:29:28.845Z,57.48
2019-02-04T02:31:58.945Z,88.47
2019-02-04T02:34:29.055Z,88.75
2019-02-04T02:36:59.160Z,76.25
2019-02-04T02:39:29.273Z,75.03
2019-02-04T02:41:59.369Z,59.23
2019-02-04T02:44:29.492Z,54.20
2019-02-04T02:46:59.604Z,55.95
2019-02-04T02:49:29.705Z,61.80
2019-02-04T02:51:59.803Z,59.75
2019-02-04T02:54:30.294Z,57.08
2019-02-04T02:57:00.400Z,59.18
2019-02-04T02:59:30.515Z,57.00
2019-02-04T03:02:00.612Z,62.55
2019-02-04T03:04:30.733Z,67.87
2019-02-04T03:07:00.833Z,62.48
2019-02-04T03:09:30.957Z,65.28
2019-02-04T03:12:01.049Z,66.07
2019-02-04T03:14:31.163Z,78.60
2019-02-04T03:17:01.252Z,63.20
2019-02-04T03:19:31.369Z,65.72
2019-02-04T03:22:02.148Z,63.55
2019-02-04T03:24:32.270Z,59.45
2019-02-04T03:27:03.342Z,60.55
2019-02-04T03:29:33.459Z,51.85
2019-02-04T03:32:03.716Z,56.95
2019-02-04T03:34:34.306Z,49.18
2019-02-04T03:37:04.398Z,57.85
2019-02-04T03:39:34.515Z,62.05
2019-02-04T03:42:05.625Z,62.75
2019-02-04T03:44:35.748Z,69.75
2019-02-04T03:47:05.850Z,59.50
2019-02-04T03:49:35.984Z,64.30
2019-02-04T03:52:06.063Z,54.88
2019-02-04T03:54:36.181Z,61.48
2019-02-04T03:57:06.283Z,66.05
2019-02-04T03:59:36.400Z,57.78
2019-02-04T04:02:06.502Z,49.13
2019-02-04T04:04:36.614Z,51.92
2019-02-04T04:07:06.712Z,53.08
2019-02-04T04:09:36.836Z,56.28
2019-02-04T04:12:06.930Z,61.20
2019-02-04T04:14:37.435Z,55.03
2019-02-04T04:17:07.533Z,60.33
2019-02-04T04:19:37.652Z,58.28
2019-02-04T04:22:08.251Z,69.50
2019-02-04T04:24:38.370Z,63.68
2019-02-04T04:27:08.465Z,54.08
2019-02-04T04:29:38.577Z,63.90
2019-02-04T04:32:08.674Z,54.48
2019-02-04T04:34:38.787Z,54.83
2019-02-04T04:37:08.956Z,57.30
2019-02-04T04:39:39.075Z,48.08
2019-02-04T04:42:09.505Z,70.62
2019-02-04T04:44:39.624Z,63.02
2019-02-04T04:47:09.724Z,64.40
2019-02-04T04:49:39.836Z,72.85
2019-02-04T04:52:09.935Z,66.20
2019-02-04T04:54:40.435Z,58.58
2019-02-04T04:57:10.534Z,56.53
2019-02-04T04:59:40.651Z,46.42
2019-02-04T05:02:10.740Z,51.60
2019-02-04T05:04:40.863Z,54.58
2019-02-04T05:07:10.969Z,51.13
2019-02-04T05:09:41.262Z,45.67
2019-02-04T05:12:11.359Z,49.18
2019-02-04T05:14:41.478Z,49.88
2019-02-04T05:17:11.580Z,42.93
2019-02-04T05:19:41.693Z,43.52
2019-02-04T05:22:12.162Z,46.60
2019-02-04T05:24:42.274Z,37.00
2019-02-04T05:27:12.390Z,44.50
2019-02-04T05:29:42.496Z,47.10
2019-02-04T05:32:12.586Z,47.10
2019-02-04T05:34:42.712Z,39.88
2019-02-04T05:37:12.811Z,54.20
2019-02-04T05:39:42.933Z,51.02
2019-02-04T05:42:13.080Z,48.42
2019-02-04T05:44:44.167Z,48.15
2019-02-04T05:47:14.256Z,41.85
2019-02-04T05:50:04.525Z,41.08
2019-02-04T05:52:34.622Z,43.48
2019-02-04T05:55:05.971Z,43.52
2019-02-04T05:57:36.064Z,43.52
2019-02-04T06:00:11.072Z,39.48
2019-02-04T06:02:41.172Z,38.92
2019-02-04T06:05:13.211Z,40.88
2019-02-04T06:07:43.302Z,33.35
2019-02-04T06:10:13.428Z,41.15
2019-02-04T06:12:43.603Z,41.85
2019-02-04T06:15:35.623Z,38.65
2019-02-04T06:18:05.714Z,41.90
2019-02-04T06:20:36.200Z,40.12
2019-02-04T06:23:06.290Z,43.92
2019-02-04T06:25:36.415Z,40.05
2019-02-04T06:28:06.538Z,44.73
2019-02-04T06:30:36.650Z,41.15
2019-02-04T06:33:06.748Z,45.65
2019-02-04T06:35:36.869Z,44.93
2019-02-04T06:38:06.961Z,47.33
2019-02-04T06:40:37.074Z,43.55
2019-02-04T06:43:07.166Z,42.20
2019-02-04T06:45:37.288Z,45.98
2019-02-04T06:48:07.670Z,41.15
2019-02-04T06:50:37.783Z,41.42
2019-02-04T06:53:07.873Z,49.33
2019-02-04T06:55:37.986Z,41.83
2019-02-04T06:58:08.088Z,43.95
2019-02-04T07:00:38.246Z,41.90
2019-02-04T07:03:08.344Z,42.10
2019-02-04T07:05:43.788Z,40.48
2019-02-04T07:08:10.281Z,41.55
2019-02-04T07:10:40.373Z,40.85
2019-02-04T07:13:10.492Z,40.20
2019-02-04T07:15:40.965Z,40.75
2019-02-04T07:18:11.085Z,39.90
2019-02-04T07:20:41.176Z,33.02
2019-02-04T07:23:11.289Z,35.00
2019-02-04T07:25:41.383Z,38.08
2019-02-04T07:28:11.515Z,44.63
2019-02-04T07:30:41.617Z,34.13
2019-02-04T07:33:11.735Z,33.55
2019-02-04T07:35:41.885Z,38.67
2019-02-04T07:38:11.999Z,35.98
2019-02-04T07:40:42.096Z,32.60
2019-02-04T07:43:12.201Z,35.73
2019-02-04T07:45:42.294Z,27.52
2019-02-04T07:48:12.419Z,36.40
2019-02-04T07:50:42.516Z,32.80
2019-02-04T07:53:12.639Z,47.45
2019-02-04T07:55:42.739Z,35.23
2019-02-04T07:58:12.931Z,31.55
2019-02-04T08:00:43.031Z,47.58
2019-02-04T08:03:15.012Z,33.18
2019-02-04T08:05:44.947Z,31.60
2019-02-04T08:08:15.059Z,35.38
2019-02-04T08:10:45.438Z,41.13
2019-02-04T08:13:15.556Z,38.85
2019-02-04T08:15:45.636Z,26.40
2019-02-04T08:18:15.760Z,24.43
2019-02-04T08:20:45.841Z,29.45
2019-02-04T08:23:15.951Z,24.45
2019-02-04T08:25:46.038Z,27.15
2019-02-04T08:28:16.137Z,29.30
2019-02-04T08:30:46.223Z,24.12
2019-02-04T08:33:16.334Z,20.35
2019-02-04T08:35:46.562Z,22.82
2019-02-04T08:38:17.064Z,18.25
2019-02-04T08:40:47.222Z,15.88
2019-02-04T08:43:17.325Z,16.05
2019-02-04T08:45:47.403Z,14.07
2019-02-04T08:48:17.605Z,15.38
2019-02-04T08:50:47.699Z,16.15
2019-02-04T08:53:18.085Z,15.40
2019-02-04T08:55:48.165Z,16.48
2019-02-04T08:58:18.262Z,16.48
2019-02-04T09:00:48.337Z,13.18
2019-02-04T09:03:18.438Z,13.48
2019-02-04T09:05:48.524Z,17.95
2019-02-04T09:08:18.904Z,15.40
2019-02-04T09:10:48.984Z,11.73
2019-02-04T09:13:19.089Z,11.00
2019-02-04T09:15:49.171Z,12.73
2019-02-04T09:18:19.293Z,12.85
2019-02-04T09:20:49.370Z,14.00
2019-02-04T09:23:19.529Z,15.98
2019-02-04T09:25:49.635Z,18.82
2019-02-04T09:28:19.740Z,14.70
2019-02-04T09:30:49.835Z,15.83
2019-02-04T09:33:19.965Z,12.78
2019-02-04T09:35:50.039Z,11.05
2019-02-04T09:38:20.158Z,11.83
2019-02-04T09:40:50.268Z,11.97
2019-02-04T09:43:20.354Z,9.65
2019-02-04T09:45:50.468Z,9.45
2019-02-04T09:48:20.549Z,11.88
2019-02-04T09:50:52.939Z,8.00
2019-02-04T09:53:23.027Z,10.15
2019-02-04T09:55:53.140Z,8.78
2019-02-04T09:58:23.222Z,8.93
2019-02-04T10:00:53.342Z,10.23
2019-02-04T10:03:23.427Z,8.78
2019-02-04T10:05:53.558Z,13.13
2019-02-04T10:08:23.630Z,7.17
2019-02-04T10:10:53.734Z,5.80
2019-02-04T10:13:23.829Z,7.15
2019-02-04T10:15:53.977Z,11.05
2019-02-04T10:18:24.363Z,9.23
2019-02-04T10:20:54.420Z,8.35
2019-02-04T10:23:25.576Z,8.60
2019-02-04T10:25:55.713Z,10.15
2019-02-04T10:28:25.859Z,11.70
2019-02-04T10:30:56.410Z,7.42
2019-02-04T10:33:27.569Z,7.22
2019-02-04T10:35:57.727Z,7.28
2019-02-04T10:38:27.825Z,9.78
2019-02-04T10:40:57.871Z,7.10
2019-02-04T10:43:27.950Z,7.92
2019-02-04T10:45:58.074Z,6.60
2019-02-04T10:48:28.177Z,10.82
2019-02-04T10:50:58.406Z,8.53
2019-02-04T10:53:28.545Z,6.08
2019-02-04T10:55:58.613Z,7.53
2019-02-04T10:58:28.996Z,6.67
2019-02-04T11:00:59.128Z,6.17
2019-02-04T11:03:29.252Z,7.60
2019-02-04T11:06:18.855Z,5.85
2019-02-04T11:08:49.274Z,6.30
2019-02-04T11:11:19.382Z,5.58
2019-02-04T11:13:49.466Z,6.58
2019-02-04T11:16:19.585Z,6.50
2019-02-04T11:18:49.743Z,5.97
2019-02-04T11:21:19.794Z,4.83
2019-02-04T11:23:49.974Z,4.20
2019-02-04T11:26:20.059Z,7.10
2019-02-04T11:28:50.188Z,6.95
2019-02-04T11:31:20.261Z,6.53
2019-02-04T11:33:50.367Z,5.05
2019-02-04T11:36:20.746Z,5.08
2019-02-04T11:38:50.926Z,5.40
2019-02-04T11:41:21.044Z,7.45
2019-02-04T11:43:51.232Z,7.83
2019-02-04T11:46:21.322Z,7.55
2019-02-04T11:48:51.422Z,9.18
2019-02-04T11:51:21.508Z,6.03
2019-02-04T11:53:51.635Z,7.58
2019-02-04T11:56:21.742Z,7.62
2019-02-04T11:58:51.840Z,7.03
2019-02-04T12:01:21.929Z,5.58
2019-02-04T12:03:52.410Z,6.03
2019-02-04T12:06:22.501Z,7.87
2019-02-04T12:08:52.595Z,6.47
2019-02-04T12:11:22.711Z,5.33
2019-02-04T12:13:52.822Z,5.75
2019-02-04T12:16:22.913Z,6.97
2019-02-04T12:18:53.008Z,8.05
2019-02-04T12:21:23.092Z,6.55
2019-02-04T12:23:53.184Z,8.38
2019-02-04T12:26:23.265Z,10.35
2019-02-04T12:28:53.367Z,10.72
2019-02-04T12:31:23.828Z,9.33
2019-02-04T12:33:53.923Z,8.83
2019-02-04T12:36:24.008Z,9.73
2019-02-04T12:38:54.128Z,11.78
2019-02-04T12:41:24.208Z,6.92
2019-02-04T12:43:54.301Z,7.70
2019-02-04T12:46:25.355Z,5.97
2019-02-04T12:48:55.463Z,4.30
2019-02-04T12:51:33.431Z,9.10
2019-02-04T12:53:57.355Z,6.92
2019-02-04T12:56:27.439Z,5.22
2019-02-04T12:58:57.826Z,5.70
2019-02-04T13:01:27.914Z,6.28
2019-02-04T13:03:58.019Z,9.68
2019-02-04T13:06:28.100Z,7.10
2019-02-04T13:08:59.160Z,5.53
2019-02-04T13:11:29.237Z,6.72
2019-02-04T13:13:59.354Z,6.12
2019-02-04T13:16:29.411Z,7.15
2019-02-04T13:18:59.522Z,6.45
2019-02-04T13:21:29.601Z,6.67
2019-02-04T13:23:59.718Z,4.05
2019-02-04T13:26:30.072Z,8.55
2019-02-04T13:29:00.178Z,5.80
2019-02-04T13:31:30.255Z,6.97
2019-02-04T13:34:00.361Z,9.25
2019-02-04T13:36:30.439Z,10.78
2019-02-04T13:39:00.553Z,11.65
2019-02-04T13:41:32.250Z,13.25
2019-02-04T13:44:02.357Z,15.35
2019-02-04T13:46:32.453Z,16.67
2019-02-04T13:49:02.543Z,12.15
2019-02-04T13:51:32.634Z,19.15
2019-02-04T13:54:02.709Z,13.30
2019-02-04T13:56:32.820Z,20.27
2019-02-04T13:59:02.909Z,19.48
2019-02-04T14:01:34.093Z,25.88
2019-02-04T14:04:04.202Z,16.80
2019-02-04T14:06:34.564Z,16.90
2019-02-04T14:09:07.021Z,14.28
2019-02-04T14:11:37.102Z,13.75
2019-02-04T14:14:07.218Z,12.33
2019-02-04T14:16:37.296Z,14.13
2019-02-04T14:19:07.585Z,14.73
2019-02-04T14:21:37.699Z,12.18
2019-02-04T14:24:07.776Z,17.27
2019-02-04T14:26:37.949Z,15.28
2019-02-04T14:29:08.034Z,13.72
2019-02-04T14:31:38.157Z,16.67
2019-02-04T14:34:08.234Z,16.67
2019-02-04T14:36:38.344Z,16.85
2019-02-04T14:39:12.047Z,17.50
2019-02-04T14:41:42.269Z,17.85
2019-02-04T14:44:16.465Z,23.57
2019-02-04T14:47:12.007Z,20.68
2019-02-04T14:49:55.574Z,22.20
2019-02-04T14:52:47.872Z,18.73
2019-02-04T14:55:50.008Z,21.97
2019-02-04T14:58:46.118Z,14.55
2019-02-04T15:02:00.282Z,24.15
2019-02-04T15:04:40.859Z,19.23
2019-02-04T15:07:44.655Z,19.45
2019-02-04T15:10:40.169Z,30.50
2019-02-04T15:13:26.404Z,29.90
2019-02-04T15:16:30.212Z,23.22
2019-02-04T15:19:20.438Z,26.93
2019-02-04T15:22:04.341Z,20.68
2019-02-04T15:25:10.710Z,20.82
2019-02-04T15:28:04.997Z,23.77
2019-02-04T15:31:07.284Z,18.60
2019-02-04T15:33:48.249Z,31.97
2019-02-04T15:36:38.189Z,29.92
2019-02-04T15:39:29.833Z,17.55
2019-02-04T15:42:31.972Z,23.38
2019-02-04T15:45:04.830Z,20.55
2019-02-04T15:47:48.924Z,26.00
2019-02-04T15:50:32.623Z,24.98
2019-02-04T15:53:02.739Z,44.63
2019-02-04T15:55:32.897Z,33.90
2019-02-04T15:58:03.014Z,28.05
2019-02-04T16:00:33.112Z,27.90
2019-02-04T16:03:03.610Z,30.25
2019-02-04T16:05:33.698Z,30.48
2019-02-04T16:08:03.811Z,25.82
2019-02-04T16:10:33.894Z,30.20
2019-02-04T16:13:04.010Z,26.40
2019-02-04T16:15:34.099Z,30.82
2019-02-04T16:18:04.400Z,28.05
2019-02-04T16:20:34.479Z,28.38
2019-02-04T16:23:04.662Z,27.55
2019-02-04T16:25:34.748Z,33.48
2019-02-04T16:28:05.834Z,26.80
2019-02-04T16:30:36.302Z,38.33
2019-02-04T16:33:06.415Z,61.55
2019-02-04T16:35:37.469Z,34.70
2019-02-04T16:38:07.586Z,57.35
2019-02-04T16:40:38.582Z,49.60
2019-02-04T16:43:08.701Z,86.02
2019-02-04T16:45:38.787Z,40.35
2019-02-04T16:48:08.906Z,37.60
2019-02-04T16:50:38.989Z,32.25
2019-02-04T16:53:10.842Z,25.77
2019-02-04T16:55:41.077Z,32.48
2019-02-04T16:58:11.573Z,31.87
2019-02-04T17:00:41.662Z,30.37
2019-02-04T17:03:11.781Z,32.55
2019-02-04T17:05:41.870Z,33.28
2019-02-04T17:08:11.985Z,30.15
2019-02-04T17:10:42.074Z,32.23
2019-02-04T17:13:12.272Z,32.15
2019-02-04T17:15:42.365Z,32.45
2019-02-04T17:18:12.476Z,26.00
2019-02-04T17:20:44.735Z,26.70
2019-02-04T17:23:22.100Z,25.00
2019-02-04T17:25:46.166Z,35.88
2019-02-04T17:28:16.279Z,29.70
2019-02-04T17:30:46.431Z,27.75
2019-02-04T17:33:16.546Z,28.17
2019-02-04T17:35:46.634Z,27.15
2019-02-04T17:38:16.755Z,31.37
2019-02-04T17:40:46.835Z,25.35
2019-02-04T17:43:16.944Z,28.52
2019-02-04T17:45:47.033Z,26.85
2019-02-04T17:48:17.149Z,27.48
2019-02-04T17:50:47.231Z,32.88
2019-02-04T17:53:17.627Z,24.82
2019-02-04T17:55:47.707Z,30.35
2019-02-04T17:58:17.820Z,25.10
2019-02-04T18:00:50.546Z,33.13
2019-02-04T18:03:21.630Z,28.32
2019-02-04T18:05:51.717Z,25.92
2019-02-04T18:08:21.813Z,23.87
2019-02-04T18:10:51.911Z,25.48
2019-02-04T18:13:22.027Z,26.10
2019-02-04T18:15:53.040Z,27.02
2019-02-04T18:18:23.222Z,24.67
2019-02-04T18:20:53.685Z,30.62
2019-02-04T18:23:23.805Z,31.12
2019-02-04T18:25:53.888Z,23.73
2019-02-04T18:28:24.003Z,25.27
2019-02-04T18:30:54.089Z,29.82
2019-02-04T18:33:24.199Z,28.90
2019-02-04T18:35:54.284Z,29.92
2019-02-04T18:38:25.476Z,24.30
2019-02-04T18:40:55.942Z,38.17
2019-02-04T18:43:26.055Z,31.95
2019-02-04T18:45:56.139Z,33.02
2019-02-04T18:48:26.633Z,34.18
2019-02-04T18:50:56.728Z,36.98
2019-02-04T18:53:26.848Z,30.68
2019-02-04T18:55:57.414Z,42.00
2019-02-04T18:58:27.899Z,32.80
2019-02-04T19:00:58.088Z,31.25
2019-02-04T19:03:28.210Z,27.60
2019-02-04T19:05:58.302Z,30.02
2019-02-04T19:08:29.490Z,24.82
2019-02-04T19:10:59.577Z,40.40
2019-02-04T19:13:36.066Z,25.57
2019-02-04T19:16:01.500Z,27.52
2019-02-04T19:18:31.578Z,25.30
2019-02-04T19:21:01.704Z,26.97
2019-02-04T19:23:31.792Z,31.73
2019-02-04T19:26:02.379Z,26.77
2019-02-04T19:28:33.428Z,28.57
2019-02-04T19:31:08.723Z,29.23
2019-02-04T19:33:38.807Z,27.70
2019-02-04T19:36:09.181Z,25.10
2019-02-04T19:38:39.551Z,24.90
2019-02-04T19:41:09.670Z,28.47
2019-02-04T19:43:39.750Z,24.12
2019-02-04T19:46:09.857Z,25.20
2019-02-04T19:48:39.955Z,26.42
2019-02-04T19:51:10.073Z,29.80
2019-02-04T19:53:40.342Z,30.43
2019-02-04T19:56:10.465Z,22.10
2019-02-04T19:58:40.661Z,21.23
2019-02-04T20:01:10.776Z,26.75
2019-02-04T20:03:40.864Z,27.05
2019-02-04T20:06:10.987Z,25.32
2019-02-04T20:08:41.068Z,29.70
2019-02-04T20:11:11.186Z,21.65
2019-02-04T20:13:41.266Z,25.60
2019-02-04T20:16:11.396Z,24.65
2019-02-04T20:18:41.479Z,23.22
2019-02-04T20:21:11.973Z,26.55
2019-02-04T20:23:42.118Z,27.02
2019-02-04T20:26:12.185Z,25.17
2019-02-04T20:28:42.267Z,24.43
2019-02-04T20:31:12.378Z,24.47
2019-02-04T20:33:42.466Z,25.97
2019-02-04T20:36:12.575Z,31.15
2019-02-04T20:38:42.654Z,23.92
2019-02-04T20:41:12.768Z,21.55
2019-02-04T20:43:42.850Z,24.52
2019-02-04T20:46:12.953Z,24.18
2019-02-04T20:48:43.041Z,25.45
2019-02-04T20:51:13.168Z,21.85
2019-02-04T20:53:43.245Z,23.52
2019-02-04T20:56:13.363Z,24.75
2019-02-04T20:58:43.444Z,27.15
2019-02-04T21:01:13.556Z,23.20
2019-02-04T21:03:43.922Z,26.42
2019-02-04T21:06:14.036Z,23.15
2019-02-04T21:08:44.117Z,26.68
2019-02-04T21:11:14.246Z,29.65
2019-02-04T21:13:45.306Z,24.32
2019-02-04T21:16:15.471Z,25.80
2019-02-04T21:18:45.585Z,24.98
2019-02-04T21:21:15.714Z,28.55
2019-02-04T21:23:45.802Z,35.48
2019-02-04T21:26:15.921Z,30.08
2019-02-04T21:28:46.013Z,28.00
2019-02-04T21:31:16.400Z,25.65
2019-02-04T21:33:46.487Z,34.00
2019-02-04T21:36:16.603Z,26.23
2019-02-04T21:38:46.687Z,26.90
2019-02-04T21:41:16.810Z,30.60
2019-02-04T21:43:46.893Z,23.67
2019-02-04T21:46:17.280Z,20.20
2019-02-04T21:48:47.362Z,36.55
2019-02-04T21:51:17.471Z,43.78
2019-02-04T21:53:47.561Z,24.30
2019-02-04T21:56:17.847Z,33.02
2019-02-04T21:58:47.934Z,36.95
2019-02-04T22:01:18.034Z,33.18
2019-02-04T22:03:48.138Z,24.47
2019-02-04T22:06:18.243Z,22.25
2019-02-04T22:08:48.332Z,18.90
2019-02-04T22:11:18.428Z,31.77
2019-02-04T22:13:48.506Z,28.40
2019-02-04T22:16:18.603Z,22.77
2019-02-04T22:18:48.691Z,24.87
2019-02-04T22:21:18.859Z,30.77
2019-02-04T22:23:48.943Z,23.90
2019-02-04T22:26:19.047Z,23.95
2019-02-04T22:28:49.135Z,23.80
2019-02-04T22:31:19.239Z,31.97
2019-02-04T22:33:49.319Z,19.90
2019-02-04T22:36:19.424Z,23.27
2019-02-04T22:38:49.516Z,33.58
2019-02-04T22:41:19.616Z,38.67
2019-02-04T22:43:49.985Z,44.38
2019-02-04T22:46:20.084Z,24.52
2019-02-04T22:48:50.174Z,47.73
2019-02-04T22:51:20.274Z,20.12
2019-02-04T22:53:50.359Z,31.82
2019-02-04T22:56:20.471Z,23.42
2019-02-04T22:58:52.245Z,18.62
2019-02-04T23:01:36.156Z,22.25
2019-02-04T23:04:06.412Z,23.73
2019-02-04T23:06:36.524Z,19.05
2019-02-04T23:09:07.945Z,18.20
2019-02-04T23:11:38.051Z,22.58
2019-02-04T23:14:08.210Z,18.55
2019-02-04T23:16:38.314Z,15.95
2019-02-04T23:19:08.400Z,20.68
2019-02-04T23:21:38.893Z,16.62
2019-02-04T23:24:08.968Z,24.00
2019-02-04T23:26:39.072Z,17.40
2019-02-04T23:29:09.162Z,19.75
2019-02-04T23:31:40.236Z,16.25
2019-02-04T23:34:10.315Z,18.00
2019-02-04T23:36:40.416Z,18.15
2019-02-04T23:39:10.494Z,23.00
2019-02-04T23:41:41.570Z,17.27
2019-02-04T23:44:11.651Z,17.57
2019-02-04T23:46:41.752Z,26.05
2019-02-04T23:49:12.111Z,23.38
2019-02-04T23:51:42.222Z,20.48
2019-02-04T23:54:12.306Z,17.07
2019-02-04T23:56:42.422Z,18.65
2019-02-04T23:59:12.506Z,26.80
